Terminal Aerodrome Forecast
Issued by NWS

Home | Current Version | Previous Version | Text Only | Print | Product List | Glossary On
Versions: 1 2 3 4 5 6 7 8 9 10 11 12 13 14 15 16
000
FTUS42 KFFC 291555 AAB
TAFFTY
TAF AMD
KFTY 291555Z 2916/3012 16008KT P6SM VCSH BKN018 OVC035
     FM291800 15008KT 6SM -SHRA BKN022
      TEMPO 2921/2924 5SM TSRA BKN015CB
     FM300100 13008KT 6SM -RA BR OVC007=

USA.gov is the U.S. government's official web portal to all federal, state and local government web resources and services.